Time,TemperatureF,DewpointF,PressureIn,WindDirection,WindDirectionDegrees,WindSpeedMPH,WindSpeedGustMPH,Humidity,HourlyPrecipIn,Conditions,Clouds,dailyrainin,SoftwareType,DateUTC
2013-06-18 00:02:00,68.0,66.0,-100.00,ENE,75,2.0,3.0,91,0.00,,,-99.99,,2013-06-18 04:02:00,
2013-06-18 00:12:00,68.0,66.0,-100.00,NNE,25,1.0,2.0,92,0.00,,,-99.99,,2013-06-18 04:12:00,
2013-06-18 00:23:00,68.0,66.0,-100.00,ENE,70,0.0,1.0,93,0.00,,,-99.99,,2013-06-18 04:23:00,
2013-06-18 00:34:00,68.0,66.0,-100.00,East,95,0.0,1.0,93,0.00,,,-99.99,,2013-06-18 04:34:00,
2013-06-18 00:43:00,68.0,66.0,-100.00,SE,130,2.0,3.0,91,0.00,,,-99.99,,2013-06-18 04:43:00,
2013-06-18 00:53:00,68.0,66.0,-100.00,ESE,120,1.0,3.0,91,0.00,,,-99.99,,2013-06-18 04:53:00,
2013-06-18 01:02:00,69.0,66.0,-100.00,ESE,120,1.0,1.0,91,0.00,,,-99.99,,2013-06-18 05:02:00,
2013-06-18 01:12:00,69.0,66.0,-100.00,ESE,120,1.0,1.0,91,0.00,,,-99.99,,2013-06-18 05:12:00,
2013-06-18 01:22:00,68.0,66.0,-100.00,SE,145,0.0,1.0,92,0.00,,,-99.99,,2013-06-18 05:22:00,
2013-06-18 01:34:00,68.0,66.0,-100.00,NNE,15,1.0,1.0,93,0.00,,,-99.99,,2013-06-18 05:34:00,
2013-06-18 01:43:00,68.0,66.0,-100.00,NE,55,0.0,1.0,94,0.00,,,-99.99,,2013-06-18 05:43:00,
2013-06-18 01:53:00,68.0,66.0,-100.00,East,100,0.0,1.0,94,0.00,,,-99.99,,2013-06-18 05:53:00,
2013-06-18 02:02:00,68.0,66.0,-100.00,East,100,0.0,1.0,94,0.00,,,-99.99,,2013-06-18 06:02:00,
2013-06-18 02:11:00,67.0,66.0,-100.00,NNW,330,0.0,1.0,95,0.00,,,-99.99,,2013-06-18 06:11:00,
2013-06-18 02:23:00,67.0,66.0,-100.00,East,100,0.0,1.0,95,0.00,,,-99.99,,2013-06-18 06:23:00,
2013-06-18 02:32:00,67.0,66.0,-100.00,East,100,0.0,0.0,95,0.00,,,-99.99,,2013-06-18 06:32:00,
2013-06-18 02:43:00,67.0,66.0,-100.00,East,100,0.0,1.0,96,0.00,,,-99.99,,2013-06-18 06:43:00,
2013-06-18 02:52:00,67.0,66.0,-100.00,East,100,0.0,0.0,96,0.00,,,-99.99,,2013-06-18 06:52:00,
2013-06-18 03:02:00,67.0,66.0,-100.00,NNW,340,1.0,2.0,96,0.00,,,-99.99,,2013-06-18 07:02:00,
2013-06-18 03:12:00,67.0,66.0,-100.00,West,280,1.0,2.0,97,0.00,,,-99.99,,2013-06-18 07:12:00,
2013-06-18 03:22:00,67.0,66.0,-100.00,West,280,1.0,2.0,97,0.00,,,-99.99,,2013-06-18 07:22:00,
2013-06-18 03:33:00,67.0,66.0,-100.00,West,280,0.0,1.0,97,0.00,,,-99.99,,2013-06-18 07:33:00,
2013-06-18 03:43:00,67.0,66.0,-100.00,SE,135,0.0,1.0,97,0.00,,,-99.99,,2013-06-18 07:43:00,
2013-06-18 03:53:00,67.0,66.0,-100.00,North,10,0.0,1.0,97,0.00,,,-99.99,,2013-06-18 07:53:00,
2013-06-18 04:02:00,67.0,66.0,-100.00,North,5,0.0,1.0,96,0.00,,,-99.99,,2013-06-18 08:02:00,
2013-06-18 04:11:00,67.0,66.0,-100.00,North,5,0.0,0.0,97,0.00,,,-99.99,,2013-06-18 08:11:00,
2013-06-18 04:23:00,67.0,66.0,-100.00,North,5,1.0,2.0,97,0.00,,,-99.99,,2013-06-18 08:23:00,
2013-06-18 04:33:00,67.0,66.0,-100.00,North,350,0.0,2.0,96,0.00,,,-99.99,,2013-06-18 08:33:00,
2013-06-18 04:43:00,67.0,66.0,-100.00,NNE,15,1.0,1.0,96,0.00,,,-99.99,,2013-06-18 08:43:00,
2013-06-18 04:52:00,67.0,65.0,-100.00,WSW,245,1.0,1.0,97,0.00,,,-99.99,,2013-06-18 08:52:00,
2013-06-18 05:02:00,67.0,66.0,-100.00,SSW,205,0.0,2.0,97,0.00,,,-99.99,,2013-06-18 09:02:00,
2013-06-18 05:12:00,67.0,66.0,-100.00,SE,130,0.0,2.0,97,0.00,,,-99.99,,2013-06-18 09:12:00,
2013-06-18 05:22:00,67.0,66.0,-100.00,SE,130,0.0,2.0,97,0.00,,,-99.99,,2013-06-18 09:22:00,
2013-06-18 05:34:00,67.0,66.0,-100.00,North,10,1.0,1.0,97,0.00,,,-99.99,,2013-06-18 09:34:00,
2013-06-18 05:43:00,67.0,66.0,-100.00,NE,35,1.0,2.0,96,0.00,,,-99.99,,2013-06-18 09:43:00,
2013-06-18 05:53:00,67.0,66.0,-100.00,East,85,0.0,1.0,96,0.00,,,-99.99,,2013-06-18 09:53:00,
2013-06-18 06:02:00,67.0,66.0,-100.00,East,85,0.0,1.0,96,0.00,,,-99.99,,2013-06-18 10:02:00,
2013-06-18 06:11:00,67.0,66.0,-100.00,NNE,15,1.0,1.0,96,0.00,,,-99.99,,2013-06-18 10:11:00,
2013-06-18 06:22:00,67.0,66.0,-100.00,NE,35,1.0,2.0,96,0.00,,,-99.99,,2013-06-18 10:22:00,
2013-06-18 06:33:00,67.0,66.0,-100.00,ENE,60,0.0,2.0,96,0.00,,,-99.99,,2013-06-18 10:33:00,
2013-06-18 06:43:00,67.0,66.0,-100.00,ESE,110,0.0,3.0,95,0.00,,,-99.99,,2013-06-18 10:43:00,
2013-06-18 06:53:00,67.0,66.0,-100.00,NNW,345,1.0,2.0,96,0.00,,,-99.99,,2013-06-18 10:53:00,
2013-06-18 07:02:00,67.0,66.0,-100.00,NNW,345,1.0,2.0,96,0.00,,,-99.99,,2013-06-18 11:02:00,
2013-06-18 07:11:00,67.0,66.0,-100.00,ESE,120,1.0,2.0,95,0.00,,,-99.99,,2013-06-18 11:11:00,
2013-06-18 07:22:00,67.0,66.0,-100.00,WNW,290,1.0,2.0,95,0.00,,,-99.99,,2013-06-18 11:22:00,
2013-06-18 07:32:00,67.0,66.0,-100.00,North,5,0.0,2.0,95,0.00,,,-99.99,,2013-06-18 11:32:00,
2013-06-18 07:43:00,67.0,66.0,-100.00,NNE,20,1.0,3.0,95,0.00,,,-99.99,,2013-06-18 11:43:00,
2013-06-18 07:52:00,67.0,66.0,-100.00,NE,55,2.0,3.0,94,0.00,,,-99.99,,2013-06-18 11:52:00,
2013-06-18 08:01:00,67.0,66.0,-100.00,NE,55,2.0,3.0,94,0.00,,,-99.99,,2013-06-18 12:01:00,
2013-06-18 08:11:00,67.0,66.0,-100.00,North,5,2.0,4.0,95,0.00,,,-99.99,,2013-06-18 12:11:00,
2013-06-18 08:22:00,67.0,66.0,-100.00,WNW,300,2.0,3.0,95,0.00,,,-99.99,,2013-06-18 12:22:00,
2013-06-18 08:33:00,67.0,66.0,-100.00,NNW,335,1.0,3.0,94,0.00,,,-99.99,,2013-06-18 12:33:00,
2013-06-18 08:43:00,68.0,66.0,-100.00,WNW,295,1.0,2.0,94,0.00,,,-99.99,,2013-06-18 12:43:00,
2013-06-18 08:52:00,67.0,66.0,-100.00,WSW,240,1.0,2.0,95,2.24,,,-99.99,,2013-06-18 12:52:00,
2013-06-18 09:02:00,67.0,66.0,-100.00,WSW,240,1.0,2.0,95,2.24,,,-99.99,,2013-06-18 13:02:00,
2013-06-18 09:12:00,68.0,67.0,-100.00,SE,140,1.0,2.0,96,0.55,,,-99.99,,2013-06-18 13:12:00,
2013-06-18 09:22:00,68.0,67.0,-100.00,SSW,195,2.0,3.0,97,1.10,,,-99.99,,2013-06-18 13:22:00,
2013-06-18 09:33:00,68.0,67.0,-100.00,WNW,285,3.0,6.0,97,0.55,,,-99.99,,2013-06-18 13:33:00,
2013-06-18 09:43:00,68.0,67.0,-100.00,South,190,2.0,3.0,96,0.55,,,-99.99,,2013-06-18 13:43:00,
2013-06-18 09:52:00,68.0,67.0,-100.00,ESE,110,3.0,5.0,96,0.00,,,-99.99,,2013-06-18 13:52:00,
2013-06-18 10:02:00,68.0,67.0,-100.00,ESE,110,3.0,5.0,96,0.00,,,-99.99,,2013-06-18 14:02:00,
2013-06-18 10:11:00,67.0,64.0,-100.00,South,185,6.0,9.0,90,0.00,,,-99.99,,2013-06-18 14:11:00,
2013-06-18 10:22:00,66.0,63.0,-100.00,WSW,240,6.0,11.0,89,0.00,,,-99.99,,2013-06-18 14:22:00,
2013-06-18 10:33:00,66.0,63.0,-100.00,WSW,250,6.0,11.0,90,0.00,,,-99.99,,2013-06-18 14:33:00,
2013-06-18 10:43:00,66.0,63.0,-100.00,WSW,240,6.0,9.0,90,0.00,,,-99.99,,2013-06-18 14:43:00,
2013-06-18 10:53:00,67.0,63.0,-100.00,WSW,240,6.0,10.0,89,0.00,,,-99.99,,2013-06-18 14:53:00,
2013-06-18 11:02:00,67.0,63.0,-100.00,WSW,240,6.0,10.0,89,0.00,,,-99.99,,2013-06-18 15:02:00,
2013-06-18 11:11:00,67.0,62.0,-100.00,WSW,255,6.0,15.0,86,0.00,,,-99.99,,2013-06-18 15:11:00,
2013-06-18 11:22:00,67.0,63.0,-100.00,SW,235,7.0,11.0,88,0.00,,,-99.99,,2013-06-18 15:22:00,
2013-06-18 11:33:00,67.0,64.0,-100.00,WSW,240,6.0,11.0,90,0.00,,,-99.99,,2013-06-18 15:33:00,
2013-06-18 11:43:00,68.0,65.0,-100.00,SW,220,4.0,9.0,89,0.00,,,-99.99,,2013-06-18 15:43:00,
2013-06-18 11:53:00,69.0,65.0,-100.00,SW,225,4.0,9.0,89,0.00,,,-99.99,,2013-06-18 15:53:00,
2013-06-18 12:01:00,69.0,65.0,-100.00,SW,225,4.0,9.0,89,0.00,,,-99.99,,2013-06-18 16:01:00,
2013-06-18 12:11:00,69.0,65.0,-100.00,West,270,4.0,7.0,89,0.00,,,-99.99,,2013-06-18 16:11:00,
2013-06-18 12:23:00,69.0,65.0,-100.00,West,270,4.0,7.0,89,0.00,,,-99.99,,2013-06-18 16:23:00,
2013-06-18 12:33:00,70.0,66.0,-100.00,WSW,255,3.0,6.0,87,0.00,,,-99.99,,2013-06-18 16:33:00,
2013-06-18 12:43:00,71.0,65.0,-100.00,West,270,6.0,10.0,83,0.00,,,-99.99,,2013-06-18 16:43:00,
2013-06-18 12:53:00,71.0,66.0,-100.00,West,270,7.0,11.0,83,0.00,,,-99.99,,2013-06-18 16:53:00,
2013-06-18 13:02:00,72.0,66.0,-100.00,SW,235,7.0,11.0,80,0.00,,,-99.99,,2013-06-18 17:02:00,
2013-06-18 13:12:00,72.0,66.0,-100.00,WSW,245,6.0,11.0,81,0.00,,,-99.99,,2013-06-18 17:12:00,
2013-06-18 13:22:00,73.0,66.0,-100.00,WSW,240,3.0,10.0,81,0.00,,,-99.99,,2013-06-18 17:22:00,
2013-06-18 13:33:00,73.0,67.0,-100.00,WSW,240,7.0,9.0,81,0.00,,,-99.99,,2013-06-18 17:33:00,
2013-06-18 13:43:00,74.0,67.0,-100.00,West,275,4.0,9.0,79,0.00,,,-99.99,,2013-06-18 17:43:00,
2013-06-18 13:53:00,75.0,68.0,-100.00,SW,230,6.0,11.0,79,0.00,,,-99.99,,2013-06-18 17:53:00,
2013-06-18 14:02:00,76.0,69.0,-100.00,SW,230,5.0,10.0,80,0.00,,,-99.99,,2013-06-18 18:02:00,
2013-06-18 14:12:00,76.0,69.0,-100.00,SW,230,5.0,10.0,80,0.00,,,-99.99,,2013-06-18 18:12:00,
2013-06-18 14:22:00,76.0,68.0,-100.00,SW,230,6.0,9.0,76,0.00,,,-99.99,,2013-06-18 18:22:00,
2013-06-18 14:33:00,76.0,68.0,-100.00,SSW,205,6.0,8.0,77,0.00,,,-99.99,,2013-06-18 18:33:00,
2013-06-18 14:42:00,78.0,70.0,-100.00,SSE,165,4.0,9.0,76,0.00,,,-99.99,,2013-06-18 18:42:00,
2013-06-18 14:53:00,79.0,69.0,-100.00,South,170,4.0,8.0,72,0.00,,,-99.99,,2013-06-18 18:53:00,
2013-06-18 15:02:00,79.0,69.0,-100.00,SSW,195,7.0,11.0,71,0.00,,,-99.99,,2013-06-18 19:02:00,
2013-06-18 15:12:00,78.0,69.0,-100.00,SSW,205,7.0,11.0,74,0.00,,,-99.99,,2013-06-18 19:12:00,
2013-06-18 15:22:00,77.0,68.0,-100.00,SSW,200,4.0,10.0,75,0.00,,,-99.99,,2013-06-18 19:22:00,
2013-06-18 15:33:00,77.0,68.0,-100.00,SE,125,3.0,9.0,73,0.00,,,-99.99,,2013-06-18 19:33:00,
2013-06-18 15:52:00,63.0,62.0,-100.00,NNE,25,4.0,16.0,96,1.10,,,-99.99,,2013-06-18 19:52:00,
2013-06-18 16:02:00,65.0,63.0,-100.00,SE,130,3.0,9.0,91,2.24,,,-99.99,,2013-06-18 20:02:00,
2013-06-18 16:11:00,66.0,63.0,-100.00,NE,45,4.0,7.0,88,0.00,,,-99.99,,2013-06-18 20:11:00,
2013-06-18 16:23:00,67.0,64.0,-100.00,SSE,165,2.0,4.0,88,1.69,,,-99.99,,2013-06-18 20:23:00,
2013-06-18 16:33:00,69.0,65.0,-100.00,East,80,1.0,5.0,85,0.00,,,-99.99,,2013-06-18 20:33:00,
2013-06-18 16:43:00,70.0,64.0,-100.00,SE,130,2.0,3.0,78,0.00,,,-99.99,,2013-06-18 20:43:00,
2013-06-18 16:52:00,69.0,63.0,-100.00,SSW,200,4.0,8.0,81,0.00,,,-99.99,,2013-06-18 20:52:00,
2013-06-18 17:33:00,72.0,65.0,-100.00,ESE,105,1.0,4.0,79,0.00,,,-99.99,,2013-06-18 21:33:00,
2013-06-18 17:43:00,72.0,65.0,-100.00,South,175,2.0,6.0,78,0.00,,,-99.99,,2013-06-18 21:43:00,
2013-06-18 17:52:00,75.0,66.0,-100.00,SE,130,0.0,3.0,74,0.00,,,-99.99,,2013-06-18 21:52:00,
2013-06-18 18:02:00,75.0,66.0,-100.00,South,180,1.0,2.0,73,0.00,,,-99.99,,2013-06-18 22:02:00,
2013-06-18 18:11:00,76.0,64.0,-100.00,ENE,75,1.0,2.0,67,0.00,,,-99.99,,2013-06-18 22:11:00,
2013-06-18 18:22:00,77.0,65.0,-100.00,North,10,1.0,3.0,66,0.00,,,-99.99,,2013-06-18 22:22:00,
2013-06-18 18:34:00,77.0,65.0,-100.00,NNE,30,1.0,3.0,65,0.00,,,-99.99,,2013-06-18 22:34:00,
2013-06-18 18:43:00,76.0,64.0,-100.00,East,100,1.0,3.0,65,0.00,,,-99.99,,2013-06-18 22:43:00,
2013-06-18 18:53:00,77.0,65.0,-100.00,NNE,30,2.0,3.0,66,0.00,,,-99.99,,2013-06-18 22:53:00,
2013-06-18 19:02:00,77.0,65.0,-100.00,NNE,30,2.0,3.0,66,0.00,,,-99.99,,2013-06-18 23:02:00,
2013-06-18 19:12:00,76.0,67.0,-100.00,SW,220,1.0,3.0,73,0.00,,,-99.99,,2013-06-18 23:12:00,
2013-06-18 19:23:00,77.0,66.0,-100.00,NE,35,2.0,4.0,69,0.00,,,-99.99,,2013-06-18 23:23:00,
2013-06-18 19:37:00,77.0,66.0,-100.00,NE,35,2.0,4.0,69,0.00,,,-99.99,,2013-06-18 23:37:00,
2013-06-18 19:46:00,76.0,64.0,-100.00,NE,40,4.0,10.0,66,0.00,,,-99.99,,2013-06-18 23:46:00,
2013-06-18 19:53:00,75.0,63.0,-100.00,North,10,4.0,9.0,65,0.00,,,-99.99,,2013-06-18 23:53:00,
2013-06-18 20:02:00,75.0,63.0,-100.00,North,5,5.0,9.0,66,0.00,,,-99.99,,2013-06-19 00:02:00,
2013-06-18 20:12:00,74.0,62.0,-100.00,NNE,15,6.0,15.0,66,0.00,,,-99.99,,2013-06-19 00:12:00,
2013-06-18 20:22:00,73.0,62.0,-100.00,NE,35,6.0,15.0,68,0.00,,,-99.99,,2013-06-19 00:22:00,
2013-06-18 20:33:00,72.0,61.0,-100.00,NNE,20,8.0,14.0,68,0.00,,,-99.99,,2013-06-19 00:33:00,
2013-06-18 20:43:00,72.0,61.0,-100.00,NW,325,6.0,10.0,68,0.00,,,-99.99,,2013-06-19 00:43:00,
2013-06-18 20:53:00,71.0,61.0,-100.00,NNE,30,6.0,13.0,69,0.00,,,-99.99,,2013-06-19 00:53:00,
2013-06-18 21:01:00,71.0,60.0,-100.00,NNE,20,6.0,13.0,69,0.00,,,-99.99,,2013-06-19 01:01:00,
2013-06-18 21:11:00,70.0,61.0,-100.00,NE,40,4.0,11.0,71,0.00,,,-99.99,,2013-06-19 01:11:00,
2013-06-18 21:22:00,70.0,60.0,-100.00,NNE,20,4.0,12.0,71,0.00,,,-99.99,,2013-06-19 01:22:00,
2013-06-18 21:32:00,69.0,59.0,-100.00,North,10,4.0,12.0,70,0.00,,,-99.99,,2013-06-19 01:32:00,
2013-06-18 21:43:00,69.0,58.0,-100.00,NE,35,6.0,11.0,68,0.00,,,-99.99,,2013-06-19 01:43:00,
2013-06-18 21:53:00,69.0,58.0,-100.00,NNE,25,6.0,12.0,68,0.00,,,-99.99,,2013-06-19 01:53:00,
2013-06-18 22:01:00,69.0,58.0,-100.00,NNE,25,6.0,12.0,68,0.00,,,-99.99,,2013-06-19 02:01:00,
2013-06-18 22:11:00,68.0,57.0,-100.00,NNE,15,6.0,12.0,69,0.00,,,-99.99,,2013-06-19 02:11:00,
2013-06-18 22:21:00,68.0,57.0,-100.00,NNE,20,4.0,10.0,69,0.00,,,-99.99,,2013-06-19 02:21:00,
2013-06-18 22:32:00,67.0,57.0,-100.00,North,0,1.0,8.0,70,0.00,,,-99.99,,2013-06-19 02:32:00,
2013-06-18 22:42:00,67.0,57.0,-100.00,North,5,4.0,10.0,70,0.00,,,-99.99,,2013-06-19 02:42:00,
2013-06-18 22:51:00,67.0,57.0,-100.00,NNE,20,3.0,8.0,70,0.00,,,-99.99,,2013-06-19 02:51:00,
2013-06-18 23:01:00,67.0,57.0,-100.00,NNE,20,3.0,8.0,70,0.00,,,-99.99,,2013-06-19 03:01:00,
2013-06-18 23:11:00,66.0,56.0,-100.00,North,10,4.0,11.0,71,0.00,,,-99.99,,2013-06-19 03:11:00,
2013-06-18 23:22:00,66.0,56.0,-100.00,NNE,20,6.0,12.0,69,0.00,,,-99.99,,2013-06-19 03:22:00,
2013-06-18 23:33:00,66.0,56.0,-100.00,North,5,4.0,12.0,70,0.00,,,-99.99,,2013-06-19 03:33:00,
2013-06-18 23:42:00,65.0,56.0,-100.00,NNE,20,6.0,12.0,71,0.00,,,-99.99,,2013-06-19 03:42:00,
2013-06-18 23:52:00,65.0,55.0,-100.00,NNE,20,5.0,11.0,71,0.00,,,-99.99,,2013-06-19 03:52:00,